createdAt,value
2018-05-10T00:08:05.707Z,20.7
2018-05-10T00:18:04.799Z,20.6
2018-05-10T00:28:04.326Z,20.6
2018-05-10T00:38:03.343Z,20.6
2018-05-10T00:48:02.432Z,20.5
2018-05-10T00:58:02.266Z,20.4
2018-05-10T01:08:01.178Z,20.4
2018-05-10T01:18:00.317Z,20.3
2018-05-10T01:27:59.815Z,20.3
2018-05-10T01:37:58.552Z,20.2
2018-05-10T01:47:58.149Z,20.1
2018-05-10T01:57:57.572Z,20.1
2018-05-10T02:07:56.601Z,20.1
2018-05-10T02:17:55.820Z,20
2018-05-10T02:27:55.034Z,19.9
2018-05-10T02:37:53.824Z,19.9
2018-05-10T02:47:54.103Z,19.8
2018-05-10T02:57:52.353Z,19.7
2018-05-10T03:07:52.227Z,19.7
2018-05-10T03:17:51.277Z,19.6
2018-05-10T03:27:50.110Z,19.6
2018-05-10T03:37:49.330Z,19.6
2018-05-10T03:47:48.327Z,19.6
2018-05-10T03:57:47.623Z,19.6
2018-05-10T04:07:47.077Z,19.7
2018-05-10T04:17:46.005Z,19.9
2018-05-10T04:27:45.591Z,20.2
2018-05-10T04:37:44.665Z,20.4
2018-05-10T04:47:43.993Z,20.6
2018-05-10T04:57:43.108Z,20.8
2018-05-10T05:07:42.763Z,21
2018-05-10T05:17:41.483Z,21.1
2018-05-10T05:27:40.679Z,21.3
2018-05-10T05:37:40.100Z,21.4
2018-05-10T05:47:39.483Z,21.5
2018-05-10T05:57:38.260Z,21.6
2018-05-10T06:07:37.775Z,21.8
2018-05-10T06:17:36.851Z,21.8
2018-05-10T06:27:35.860Z,21.8
2018-05-10T06:37:35.345Z,21.9
2018-05-10T06:47:34.828Z,22
2018-05-10T06:57:33.599Z,22.1
2018-05-10T07:07:33.317Z,22.1
2018-05-10T07:17:31.918Z,21.9
2018-05-10T07:27:31.159Z,21.9
2018-05-10T07:37:30.313Z,22.1
2018-05-10T07:47:30.653Z,22.4
2018-05-10T07:57:29.354Z,22.6
2018-05-10T08:07:28.824Z,22.8
2018-05-10T08:17:27.962Z,23.1
2018-05-10T08:27:26.467Z,23.2
2018-05-10T08:37:25.919Z,23.3
2018-05-10T08:47:25.669Z,23.5
2018-05-10T08:57:24.487Z,23.4
2018-05-10T09:07:24.689Z,23.4
2018-05-10T09:17:22.502Z,23.4
2018-05-10T09:27:22.089Z,23.4
2018-05-10T09:37:21.813Z,23.4
2018-05-10T09:47:21.399Z,23.4
2018-05-10T09:57:19.550Z,23.4
2018-05-10T10:07:18.660Z,23.3
2018-05-10T10:17:18.039Z,23.3
2018-05-10T10:27:18.035Z,23.4
2018-05-10T10:37:16.674Z,23.4
2018-05-10T10:47:15.632Z,23.3
2018-05-10T10:57:14.707Z,23.4
2018-05-10T11:07:13.977Z,23.4
2018-05-10T11:17:13.768Z,23.3
2018-05-10T11:27:12.748Z,23.3
2018-05-10T11:37:12.003Z,23.3
2018-05-10T11:47:10.829Z,23.3
2018-05-10T11:57:10.407Z,23.2
2018-05-10T12:07:09.749Z,23.2
2018-05-10T12:17:09.914Z,23.2
2018-05-10T12:27:07.714Z,23.3
2018-05-10T12:37:07.249Z,23.2
2018-05-10T12:47:06.129Z,23.3
2018-05-10T12:57:05.317Z,23.3
2018-05-10T13:07:04.638Z,23.3
2018-05-10T13:17:04.658Z,23.3
2018-05-10T13:27:03.694Z,23.3
2018-05-10T13:37:02.217Z,23.3
2018-05-10T13:47:02.217Z,23.3
2018-05-10T13:57:01.006Z,23.2
2018-05-10T14:07:00.544Z,23.1
2018-05-10T14:16:59.073Z,22.9
2018-05-10T14:26:58.362Z,22.8
2018-05-10T14:36:57.560Z,22.8
2018-05-10T14:46:56.747Z,22.7
2018-05-10T14:56:56.190Z,22.5
2018-05-10T15:06:55.683Z,22.4
2018-05-10T15:16:54.952Z,22.2
2018-05-10T15:26:54.053Z,21.9
2018-05-10T15:36:53.166Z,21.8
2018-05-10T15:46:53.099Z,21.7
2018-05-10T15:56:52.424Z,21.8
2018-05-10T16:06:51.096Z,21.9
2018-05-10T16:16:49.663Z,22
2018-05-10T16:26:48.948Z,22.1
2018-05-10T16:36:48.428Z,22.1
2018-05-10T16:46:48.767Z,22.2
2018-05-10T16:56:46.702Z,22.3
2018-05-10T17:06:46.625Z,22.3
2018-05-10T17:16:45.181Z,22.2
2018-05-10T17:26:44.243Z,22.1
2018-05-10T17:36:44.116Z,22.1
2018-05-10T17:46:43.008Z,22.1
2018-05-10T17:56:42.615Z,22.1
2018-05-10T18:06:41.680Z,22.1
2018-05-10T18:16:40.668Z,22.2
2018-05-10T18:26:39.843Z,22.3
2018-05-10T18:36:39.870Z,22.3
2018-05-10T18:46:38.443Z,22.4
2018-05-10T18:56:38.127Z,22.4
2018-05-10T19:06:36.795Z,22.4
2018-05-10T19:16:35.921Z,22.3
2018-05-10T19:26:35.592Z,21.9
2018-05-10T19:36:34.323Z,21.6
2018-05-10T19:46:33.413Z,21.3
2018-05-10T19:56:32.527Z,21.2
2018-05-10T20:06:32.218Z,20.9
2018-05-10T20:16:31.913Z,20.7
2018-05-10T20:26:30.421Z,20.6
2018-05-10T20:36:30.393Z,20.4
2018-05-10T20:46:28.631Z,20.3
2018-05-10T20:56:28.361Z,20.3
2018-05-10T21:06:27.490Z,20.1
2018-05-10T21:16:27.058Z,20.1
2018-05-10T21:26:25.623Z,20
2018-05-10T21:36:24.746Z,19.9
2018-05-10T21:46:24.000Z,19.9
2018-05-10T21:56:23.445Z,19.8
2018-05-10T22:06:23.308Z,19.8
2018-05-10T22:16:22.238Z,19.7
2018-05-10T22:26:21.030Z,19.7
2018-05-10T22:36:20.157Z,19.7
2018-05-10T22:46:19.850Z,19.8
2018-05-10T22:56:19.330Z,19.7
2018-05-10T23:06:17.854Z,19.7
2018-05-10T23:16:17.024Z,19.7
2018-05-10T23:26:16.437Z,19.7
2018-05-10T23:36:15.307Z,19.8
2018-05-10T23:46:14.754Z,19.8
2018-05-10T23:56:14.350Z,19.8
